• Join FlightAware (Why Join?)
  • Login
  • US Flag 
07:32PM EST


 

Airport Tracker/Info


-or-


 

Live Flight TrackerFlight Track Log ✈ UAL582 ✈ 16-Apr-2013 ✈ CYYZ - KORD

Flight Track Log - Related Links

Times and Time Zones

All times are in EDT time to prevent confusion due to time zone crossing. See the UAL582 flight status page for this flight to view local times or setup timezone preferences in your user account.

Time Position Orientation Groundspeed Altitude Reporting Facility
EDT Latitude Longitude Course Direction KTS MPH feet Rate Location/Type
05:04PM 43.6833 -79.6333 278° West 150 173 2,000  Level Toronto Center
05:05PM 43.7333 -79.6833 324° Northwest 190 219 3,900 1,500 Climbing Toronto Center
05:06PM 43.7667 -79.7500 305° West 240 276 5,000 720 Climbing Toronto Center
05:07PM 43.7667 -79.8333 270° West 230 265 5,400 1,620 Climbing Toronto Center
05:08PM 43.6835 -80.0674 283° West  Level FlightAware Approximate
05:08PM 43.7500 -79.9333 257° West 230 265 8,300  Level Toronto Center
05:09PM 43.7000 -80.1797 270° West  Level FlightAware Approximate
05:09PM 43.7500 -80.0000 270° West 230 265 11,300  Level Toronto Center
05:10PM 43.7094 -80.3105 278° West  Level FlightAware Approximate
05:10PM 43.7500 -80.1167 270° West 270 311 13,700  Level Toronto Center
05:11PM 43.7500 -80.2333 270° West 290 334 16,600 2,700 Climbing Toronto Center
05:12PM 43.7500 -80.3500 270° West 290 334 19,100 2,400 Climbing Toronto Center
05:13PM 43.7500 -80.4667 270° West 300 345 21,500 2,160 Climbing Toronto Center
05:14PM 43.7333 -80.5833 259° West 300 345 23,500 1,860 Climbing Toronto Center
05:15PM 43.7167 -80.7000 259° West 310 357 25,300 1,680 Climbing Toronto Center
05:16PM 43.6833 -80.8167 248° West 320 368 26,900 1,320 Climbing Toronto Center
05:17PM 43.6500 -80.9500 251° West 330 380 28,000 900 Climbing Toronto Center
05:18PM 43.6167 -81.0667 248° West 350 403 28,700 1,020 Climbing Toronto Center
05:19PM 43.5833 -81.2000 251° West 370 426 30,100 1,380 Climbing Toronto Center
05:20PM 43.5667 -81.3333 260° West 370 426 31,500 900 Climbing Toronto Center
05:21PM 43.5333 -81.4667 251° West 360 414 32,000 240 Climbing Toronto Center
05:22PM 43.5000 -81.6167 253° West 360 414 32,000  Level Toronto Center
05:23PM 43.4833 -81.7167 257° West 360 414 32,000  Level Toronto Center
05:24PM 43.4500 -81.8667 253° West 360 414 32,000  Level Toronto Center
05:25PM 43.4000 -81.9667 235° Southwest 360 414 32,000  Level Toronto Center
05:26PM 43.3833 -82.1167 261° West 360 414 32,000  Level Toronto Center
05:27PM 43.3500 -82.2500 251° West 360 414 32,000 -120 Level Toronto Center
05:28PM 43.3167 -82.3833 251° West 360 414 31,800 -600 Descending Toronto Center
05:29PM 43.3000 -82.5167 260° West 360 414 30,900 -900 Descending Toronto Center
05:30PM 43.2667 -82.6333 249° West 370 426 30,000 -540 Descending Toronto Center
05:31PM 43.2442 -82.7519 255° West 362 417 30,000  Level Cleveland Center
05:32PM 43.2106 -82.8847 251° West 362 417 30,000  Level Cleveland Center
05:33PM 43.1722 -83.0172 248° West 368 423 30,000  Level Cleveland Center
05:34PM 43.1361 -83.1467 249° West 368 423 30,000  Level Cleveland Center
05:35PM 43.0978 -83.2758 248° West 368 423 30,000  Level Cleveland Center
05:36PM 43.0633 -83.4078 250° West 368 423 30,000  Level Cleveland Center
05:37PM 43.0267 -83.5397 249° West 368 423 30,000  Level Cleveland Center
05:38PM 42.9881 -83.6600 246° West 373 429 30,000  Level Cleveland Center
05:39PM 42.9614 -83.7947 255° West 373 429 30,000  Level Cleveland Center
05:40PM 42.9469 -83.9389 262° West 373 429 30,000  Level Cleveland Center
05:41PM 42.9344 -84.0800 263° West 378 435 30,000  Level Cleveland Center
05:43PM 42.9108 -84.3144 262° West 377 434 30,000  Level Chicago Center
05:44PM 42.8972 -84.4550 263° West 376 433 30,000  Level Chicago Center
05:45PM 42.8800 -84.6225 262° West 374 430 30,000  Level Chicago Center
05:46PM 42.8658 -84.7636 262° West 376 433 30,000  Level Chicago Center
05:47PM 42.8500 -84.9064 261° West 381 438 30,000  Level Chicago Center
05:48PM 42.8353 -85.0481 262° West 380 437 30,000  Level Chicago Center
05:49PM 42.8203 -85.1903 262° West 379 436 30,000  Level Chicago Center
05:50PM 42.8044 -85.3350 262° West 385 443 30,000  Level Chicago Center
05:51PM 42.7847 -85.5064 261° West 383 441 30,000 -120 Level Chicago Center
05:52PM 42.7592 -85.6475 256° West 383 441 29,800 -540 Descending Chicago Center
05:53PM 42.7336 -85.7858 256° West 377 434 28,900 -1,620 Descending Chicago Center
05:54PM 42.7092 -85.9239 256° West 374 430 26,500 -2,400 Descending Chicago Center
05:55PM 42.6842 -86.0603 256° West 372 428 24,000 -2,400 Descending Chicago Center
05:56PM 42.6603 -86.1917 256° West 362 417 21,500 -1,980 Descending Chicago Center
05:57PM 42.6367 -86.3189 256° West 352 405 20,000 -780 Descending Chicago Center
05:58PM 42.6133 -86.4417 256° West 339 390 20,000  Level Chicago Center
05:59PM 42.5847 -86.5936 256° West 345 397 20,000 -300 Level Chicago Center
06:00PM 42.5647 -86.7064 256° West 343 395 19,400 -1,020 Descending Chicago Center
06:02PM 42.5269 -86.8506 250° West 339 390 17,900 -1,680 Descending Chicago Center
06:03PM 42.4986 -86.9561 250° West 331 381 16,000 -2,100 Descending Chicago Center
06:04PM 42.4661 -87.0672 248° West 319 367 13,600 -2,700 Descending Chicago Center
06:05PM 42.4308 -87.2000 250° West 314 361 10,500 -1,800 Descending Chicago Center
06:06PM 42.3989 -87.3139 249° West 323 372 10,000 -300 Descending Chicago Center
06:07PM 42.3661 -87.4331 250° West 321 369 10,000  Level Chicago Center
06:08PM 42.3322 -87.5444 248° West 324 373 10,000  Level Chicago Center
06:09PM 42.2589 -87.6192 217° Southwest 332 382 10,000  Level Chicago Center
06:10PM 42.1867 -87.6953 218° Southwest 333 383 10,000  Level Chicago Center
06:11PM 42.1167 -87.7667 217° Southwest 326 375 10,100 -60 Climbing Chicago TRACON
06:12PM 42.0667 -87.8667 236° Southwest 264 304 9,900 -840 Descending Chicago TRACON
06:13PM 42.0667 -87.9500 270° West 264 304 8,500 -1,020 Descending Chicago TRACON
06:14PM 42.0667 -88.0333 270° West 197 227 8,000 -1,560 Descending Chicago TRACON
06:15PM 42.0667 -88.1000 270° West 189 217 5,400 -1,980 Descending Chicago TRACON
06:15PM 42.0500 -88.1667 251° West 200 230 4,300 -1,080 Descending Chicago TRACON
06:16PM 42.0356 -88.1706 191° South 195 224 3,900 -360 Descending Chicago Center
06:17PM 41.9867 -88.1294 148° Southeast 191 220 3,800 -120 Descending Chicago Center